Time;durP1;ratioP1;P1;durP2;ratioP2;P2;SDS_P1;SDS_P2;PMS_P1;PMS_P2;Temp;Humidity;BMP_temperature;BMP_pressure;BME280_temperature;BME280_humidity;BME280_pressure;Samples;Min_cycle;Max_cycle;Signal;HPM_P1;HPM_P2
2024/03/05 00:00:58;;;;;;;32.70;28.60;;;4.70;88.20;;;;;;5097093;28;20161;-88
2024/03/05 00:03:24;;;;;;;34.17;30.40;;;4.60;88.10;;;;;;5097192;28;20557;-87
2024/03/05 00:05:50;;;;;;;33.50;27.10;;;4.60;88.20;;;;;;5096449;28;20177;-87
2024/03/05 00:08:16;;;;;;;32.07;27.50;;;4.60;88.30;;;;;;5096729;28;20175;-89
2024/03/05 00:10:41;;;;;;;48.67;29.03;;;4.60;88.40;;;;;;5096957;28;20173;-88
2024/03/05 00:13:07;;;;;;;30.23;23.13;;;4.50;88.20;;;;;;5078095;28;20190;-86
2024/03/05 00:15:33;;;;;;;36.97;21.70;;;4.50;88.40;;;;;;5096964;28;20262;-87
2024/03/05 00:17:59;;;;;;;32.10;22.53;;;4.50;88.50;;;;;;5097045;28;20232;-86
2024/03/05 00:20:24;;;;;;;29.97;25.07;;;4.40;88.50;;;;;;5097947;28;20174;-87
2024/03/05 00:22:50;;;;;;;36.97;24.47;;;4.40;88.70;;;;;;5096640;28;20278;-86
2024/03/05 00:25:19;;;;;;;33.63;24.57;;;4.40;88.70;;;;;;5078765;28;20225;-86
2024/03/05 00:27:44;;;;;;;27.90;22.67;;;4.40;88.70;;;;;;5078825;28;20185;-86
2024/03/05 00:30:13;;;;;;;35.70;26.20;;;4.40;88.80;;;;;;5096958;28;20167;-87
2024/03/05 00:32:38;;;;;;;43.67;25.03;;;4.40;88.80;;;;;;5096834;28;20219;-87
2024/03/05 00:35:06;;;;;;;27.27;23.30;;;4.40;88.90;;;;;;5079079;28;20279;-86
2024/03/05 00:37:31;;;;;;;31.83;24.60;;;4.40;89.00;;;;;;5078387;28;20216;-88
2024/03/05 00:39:58;;;;;;;33.80;23.73;;;4.40;88.90;;;;;;5082584;28;20173;-85
2024/03/05 00:42:23;;;;;;;37.70;24.30;;;4.30;88.90;;;;;;5100972;28;20269;-87
2024/03/05 00:44:49;;;;;;;28.27;22.33;;;4.40;89.00;;;;;;5100582;28;20212;-87
2024/03/05 00:47:14;;;;;;;30.67;24.20;;;4.40;89.10;;;;;;5099642;28;20183;-88
2024/03/05 00:49:40;;;;;;;29.83;24.07;;;4.30;88.90;;;;;;5082171;28;20177;-87
2024/03/05 00:52:05;;;;;;;33.63;25.73;;;4.30;89.00;;;;;;5101105;28;20239;-87
2024/03/05 00:54:31;;;;;;;40.17;23.70;;;4.30;89.00;;;;;;5101649;28;20189;-88
2024/03/05 00:56:57;;;;;;;30.50;24.37;;;4.30;89.00;;;;;;5083237;28;20204;-89
2024/03/05 00:59:22;;;;;;;34.83;24.23;;;4.30;89.00;;;;;;5101889;28;20189;-88
2024/03/05 01:01:48;;;;;;;34.10;23.80;;;4.30;89.20;;;;;;5084323;28;20699;-88
2024/03/05 01:04:14;;;;;;;39.60;25.00;;;4.40;89.10;;;;;;5101076;28;20198;-86
2024/03/05 01:06:43;;;;;;;37.13;26.07;;;4.30;88.90;;;;;;5082569;28;20188;-87
2024/03/05 01:09:15;;;;;;;32.53;24.17;;;4.30;88.90;;;;;;5101788;28;20180;-87
2024/03/05 01:11:41;;;;;;;28.43;23.20;;;4.30;89.20;;;;;;5101211;28;20208;-87
2024/03/05 01:14:06;;;;;;;43.73;25.87;;;4.30;89.10;;;;;;5100602;28;20176;-87
2024/03/05 01:16:32;;;;;;;39.10;31.20;;;4.30;89.00;;;;;;5101387;28;20552;-87
2024/03/05 01:18:57;;;;;;;35.03;28.60;;;4.30;89.10;;;;;;5083300;28;20335;-87
2024/03/05 01:21:23;;;;;;;36.87;29.53;;;4.30;89.10;;;;;;5101776;28;20256;-88
2024/03/05 01:23:48;;;;;;;45.23;33.03;;;4.30;89.10;;;;;;5083274;28;20673;-87
2024/03/05 01:26:14;;;;;;;29.43;26.27;;;4.30;89.10;;;;;;5100264;28;20587;-88
2024/03/05 01:28:40;;;;;;;31.93;27.57;;;4.30;89.20;;;;;;5082603;28;20180;-87
2024/03/05 01:31:05;;;;;;;34.13;29.37;;;4.30;89.20;;;;;;5100943;28;20234;-88
2024/03/05 01:33:31;;;;;;;33.90;27.53;;;4.30;89.30;;;;;;5101300;28;20200;-84
2024/03/05 01:35:57;;;;;;;39.83;29.67;;;4.30;89.30;;;;;;5100299;28;20170;-88
2024/03/05 01:38:23;;;;;;;35.13;29.13;;;4.30;89.30;;;;;;5082534;28;20578;-87
2024/03/05 01:40:49;;;;;;;42.10;30.93;;;4.20;89.30;;;;;;5082966;28;20169;-87
2024/03/05 01:43:15;;;;;;;36.33;29.73;;;4.30;89.40;;;;;;5100802;28;20739;-89
2024/03/05 01:45:42;;;;;;;33.30;29.73;;;4.30;89.40;;;;;;5083410;28;20183;-87
2024/03/05 01:48:08;;;;;;;35.10;31.23;;;4.30;89.40;;;;;;5083739;28;20182;-87
2024/03/05 01:50:35;;;;;;;36.70;32.40;;;4.30;89.50;;;;;;5100295;28;20170;-88
2024/03/05 01:53:02;;;;;;;25.93;23.37;;;4.30;89.50;;;;;;5100777;28;20263;-87
2024/03/05 01:55:28;;;;;;;34.27;30.33;;;4.30;89.40;;;;;;5082455;28;20204;-89
2024/03/05 01:57:54;;;;;;;43.10;32.50;;;4.30;89.30;;;;;;5082000;28;20193;-86
2024/03/05 02:00:20;;;;;;;43.60;30.50;;;4.30;89.40;;;;;;5101076;28;20224;-88
2024/03/05 02:02:46;;;;;;;36.30;31.73;;;4.30;89.40;;;;;;5100723;28;20187;-87
2024/03/05 02:05:12;;;;;;;32.77;25.73;;;4.30;89.50;;;;;;5082347;28;20177;-87
2024/03/05 02:07:40;;;;;;;37.27;31.63;;;4.30;89.50;;;;;;5082052;28;20171;-88
2024/03/05 02:10:09;;;;;;;40.60;29.60;;;4.30;89.50;;;;;;5100613;28;20608;-88
2024/03/05 02:12:40;;;;;;;39.37;32.13;;;4.30;89.60;;;;;;5100340;28;20195;-87
2024/03/05 02:15:11;;;;;;;33.77;28.73;;;4.30;89.60;;;;;;5100842;28;20222;-87
2024/03/05 02:17:40;;;;;;;36.20;29.80;;;4.30;89.60;;;;;;5100798;28;20586;-87
2024/03/05 02:20:09;;;;;;;38.00;31.23;;;4.30;89.60;;;;;;5100591;28;20166;-87
2024/03/05 02:22:38;;;;;;;38.13;31.83;;;4.30;89.70;;;;;;5101499;28;20240;-87
2024/03/05 02:25:05;;;;;;;40.03;31.50;;;4.30;89.70;;;;;;5083135;28;20180;-86
2024/03/05 02:27:31;;;;;;;39.70;32.30;;;4.30;89.60;;;;;;5101088;28;20212;-87
2024/03/05 02:29:57;;;;;;;35.80;28.80;;;4.30;89.60;;;;;;5100828;28;20285;-86
2024/03/05 02:32:24;;;;;;;36.20;30.27;;;4.30;89.50;;;;;;5081988;28;20202;-88
2024/03/05 02:34:54;;;;;;;37.80;28.40;;;4.30;89.50;;;;;;5082577;28;20181;-88
2024/03/05 02:37:22;;;;;;;39.50;32.23;;;4.30;89.50;;;;;;5100767;28;20182;-87
2024/03/05 02:39:48;;;;;;;37.10;30.53;;;4.30;89.40;;;;;;5083437;28;20232;-87
2024/03/05 02:42:17;;;;;;;31.30;27.83;;;4.30;89.40;;;;;;5100515;28;20187;-87
2024/03/05 02:44:42;;;;;;;39.23;29.97;;;4.30;89.50;;;;;;5082659;28;20227;-87
2024/03/05 02:47:08;;;;;;;43.30;33.67;;;4.30;89.40;;;;;;5100324;28;20177;-88
2024/03/05 02:49:36;;;;;;;33.80;28.03;;;4.30;89.50;;;;;;5101127;28;20175;-86
2024/03/05 02:52:03;;;;;;;39.80;33.27;;;4.30;89.40;;;;;;5100989;28;20210;-88
2024/03/05 02:54:28;;;;;;;36.83;26.43;;;4.30;89.40;;;;;;5102001;28;20177;-87
2024/03/05 02:56:54;;;;;;;38.03;25.97;;;4.30;89.40;;;;;;5082425;28;20175;-86
2024/03/05 02:59:19;;;;;;;44.43;27.90;;;4.30;89.50;;;;;;5102962;28;20184;-89
2024/03/05 03:01:50;;;;;;;37.20;27.17;;;4.30;89.50;;;;;;5083067;28;20725;-87
2024/03/05 03:04:15;;;;;;;42.03;27.90;;;4.30;89.50;;;;;;5102143;28;20755;-87
2024/03/05 03:06:41;;;;;;;39.10;25.83;;;4.30;89.40;;;;;;5101002;28;20189;-88
2024/03/05 03:09:07;;;;;;;35.20;23.90;;;4.30;89.40;;;;;;5082369;28;20182;-89
2024/03/05 03:11:34;;;;;;;45.13;27.30;;;4.40;89.20;;;;;;5082844;28;20195;-87
2024/03/05 03:14:00;;;;;;;33.57;24.97;;;4.30;89.20;;;;;;5083537;28;20254;-89
2024/03/05 03:16:26;;;;;;;39.43;26.00;;;4.40;89.30;;;;;;5084691;28;20181;-87
2024/03/05 03:18:51;;;;;;;32.20;25.60;;;4.40;89.30;;;;;;5102063;28;20209;-87
2024/03/05 03:21:17;;;;;;;36.07;27.67;;;4.40;89.20;;;;;;5103485;28;20186;-89
2024/03/05 03:23:44;;;;;;;38.50;28.13;;;4.40;89.40;;;;;;5100851;28;20170;-87
2024/03/05 03:26:11;;;;;;;34.53;25.30;;;4.40;89.40;;;;;;5084136;28;20178;-87
2024/03/05 03:28:37;;;;;;;34.87;23.07;;;4.50;89.40;;;;;;5101110;28;20181;-88
2024/03/05 03:31:05;;;;;;;38.67;25.80;;;4.50;89.10;;;;;;5083930;28;20177;-86
2024/03/05 03:33:31;;;;;;;33.73;27.33;;;4.50;89.20;;;;;;5078337;28;20210;-87
2024/03/05 03:35:56;;;;;;;35.57;25.37;;;4.50;89.20;;;;;;5095328;28;20637;-86
2024/03/05 03:38:23;;;;;;;39.77;25.20;;;4.50;89.20;;;;;;5095475;28;20218;-88
2024/03/05 03:40:49;;;;;;;34.83;25.40;;;4.50;89.10;;;;;;5076531;28;20223;-85
2024/03/05 03:43:14;;;;;;;34.47;23.83;;;4.50;88.90;;;;;;5095359;28;20202;-87
2024/03/05 03:45:40;;;;;;;30.10;23.30;;;4.50;89.00;;;;;;5095286;28;20246;-86
2024/03/05 03:48:06;;;;;;;40.50;22.40;;;4.50;88.80;;;;;;5076728;28;20239;-86
2024/03/05 03:50:32;;;;;;;36.70;23.70;;;4.50;88.80;;;;;;5095143;28;20602;-85
2024/03/05 03:52:58;;;;;;;31.17;23.73;;;4.50;89.00;;;;;;5094906;28;20218;-87
2024/03/05 03:55:23;;;;;;;33.53;22.63;;;4.50;89.00;;;;;;5094878;28;20180;-87
2024/03/05 03:57:49;;;;;;;31.37;26.67;;;4.50;89.00;;;;;;5076763;28;20307;-88
2024/03/05 04:00:18;;;;;;;41.47;30.63;;;4.50;88.80;;;;;;5076666;28;20191;-86
2024/03/05 04:02:45;;;;;;;32.80;27.50;;;4.50;88.80;;;;;;5094773;28;20193;-87
2024/03/05 04:05:11;;;;;;;35.77;31.27;;;4.50;88.80;;;;;;5076456;28;20175;-87
2024/03/05 04:07:37;;;;;;;37.90;32.80;;;4.50;88.80;;;;;;5076247;28;20182;-85
2024/03/05 04:10:10;;;;;;;33.07;29.43;;;4.50;88.80;;;;;;5094814;28;20641;-86
2024/03/05 04:12:36;;;;;;;37.93;31.20;;;4.50;88.70;;;;;;5093857;28;20201;-86
2024/03/05 04:15:03;;;;;;;38.40;32.00;;;4.50;88.70;;;;;;5076315;28;20186;-86
2024/03/05 04:17:28;;;;;;;42.37;31.17;;;4.50;88.80;;;;;;5094374;28;20364;-87
2024/03/05 04:19:55;;;;;;;42.03;31.43;;;4.50;88.70;;;;;;5094460;28;20696;-86
2024/03/05 04:22:21;;;;;;;41.70;29.20;;;4.50;88.70;;;;;;5094359;28;20615;-86
2024/03/05 04:24:52;;;;;;;36.43;30.73;;;4.50;88.70;;;;;;5076442;28;20175;-87
2024/03/05 04:27:18;;;;;;;35.83;28.83;;;4.50;89.00;;;;;;5076102;28;20169;-87
2024/03/05 04:29:47;;;;;;;32.27;28.73;;;4.50;88.90;;;;;;5076224;28;20175;-86
2024/03/05 04:32:14;;;;;;;36.17;30.00;;;4.50;88.80;;;;;;5094203;28;20662;-86
2024/03/05 04:34:42;;;;;;;38.80;30.90;;;4.50;88.90;;;;;;5077518;28;20186;-88
2024/03/05 04:37:13;;;;;;;33.10;29.63;;;4.50;88.70;;;;;;5076097;28;20173;-87
2024/03/05 04:39:41;;;;;;;35.07;31.27;;;4.40;88.80;;;;;;5094110;28;20157;-86
2024/03/05 04:42:07;;;;;;;33.30;29.33;;;4.50;88.70;;;;;;5075983;28;20191;-86
2024/03/05 04:44:34;;;;;;;34.37;30.53;;;4.50;88.80;;;;;;5076150;28;20645;-86
2024/03/05 04:47:00;;;;;;;37.10;29.87;;;4.40;88.80;;;;;;5094315;28;20174;-86
2024/03/05 04:49:26;;;;;;;34.43;30.33;;;4.40;88.70;;;;;;5094087;28;20162;-86
2024/03/05 04:51:52;;;;;;;32.53;29.00;;;4.50;88.80;;;;;;5094215;28;20202;-87
2024/03/05 04:54:18;;;;;;;34.03;30.00;;;4.50;88.60;;;;;;5094139;28;20230;-87
2024/03/05 04:56:43;;;;;;;32.63;29.17;;;4.40;88.50;;;;;;5093863;28;20167;-87
2024/03/05 04:59:09;;;;;;;31.20;27.87;;;4.40;88.60;;;;;;5094038;28;20200;-87
2024/03/05 05:01:35;;;;;;;33.97;30.17;;;4.50;88.50;;;;;;5094244;28;20190;-86
2024/03/05 05:04:01;;;;;;;26.83;20.37;;;4.50;88.40;;;;;;5094149;28;20261;-87
2024/03/05 05:06:27;;;;;;;31.83;22.83;;;4.40;88.50;;;;;;5076057;28;20170;-86
2024/03/05 05:08:52;;;;;;;32.70;24.03;;;4.50;88.60;;;;;;5093920;28;20551;-89
2024/03/05 05:11:18;;;;;;;35.30;30.30;;;4.50;88.70;;;;;;5093822;28;20174;-86
2024/03/05 05:13:43;;;;;;;36.00;30.63;;;4.50;88.80;;;;;;5075542;28;20257;-86
2024/03/05 05:16:11;;;;;;;26.87;23.77;;;4.50;88.80;;;;;;5094586;28;20170;-86
2024/03/05 05:18:37;;;;;;;38.87;29.77;;;4.40;88.60;;;;;;5094161;28;20277;-86
2024/03/05 05:21:03;;;;;;;33.73;27.77;;;4.40;88.70;;;;;;5094201;28;20182;-85
2024/03/05 05:23:29;;;;;;;36.20;29.60;;;4.30;88.50;;;;;;5094115;28;20189;-86
2024/03/05 05:25:54;;;;;;;36.80;31.13;;;4.40;88.70;;;;;;5097836;28;20262;-86
2024/03/05 05:28:20;;;;;;;35.77;28.43;;;4.30;88.70;;;;;;5079437;28;20560;-86
2024/03/05 05:30:45;;;;;;;31.67;28.37;;;4.30;88.80;;;;;;5097858;28;20181;-87
2024/03/05 05:33:12;;;;;;;36.37;28.60;;;4.30;88.80;;;;;;5097419;28;20194;-87
2024/03/05 05:35:37;;;;;;;39.60;28.03;;;4.30;88.70;;;;;;5098269;28;20179;-84
2024/03/05 05:38:10;;;;;;;33.87;30.13;;;4.30;88.80;;;;;;5097909;28;20685;-88
2024/03/05 05:40:36;;;;;;;36.33;31.87;;;4.30;88.70;;;;;;5079180;28;20174;-87
2024/03/05 05:43:01;;;;;;;37.30;32.80;;;4.30;88.80;;;;;;5097745;28;20540;-85
2024/03/05 05:45:27;;;;;;;38.37;33.23;;;4.30;88.90;;;;;;5097331;28;20318;-87
2024/03/05 05:47:53;;;;;;;38.80;32.77;;;4.30;88.90;;;;;;5079222;28;20192;-87
2024/03/05 05:50:21;;;;;;;41.83;34.00;;;4.30;88.80;;;;;;5097128;28;20193;-86
2024/03/05 05:52:48;;;;;;;33.77;25.57;;;4.30;89.00;;;;;;5078680;28;20214;-86
2024/03/05 05:55:20;;;;;;;31.90;23.87;;;4.30;89.00;;;;;;5079052;28;20177;-85
2024/03/05 05:57:49;;;;;;;35.77;25.03;;;4.30;88.80;;;;;;5097012;28;20185;-86
2024/03/05 06:00:31;;;;;;;43.00;28.13;;;4.30;88.90;;;;;;5096991;28;20174;-86
2024/03/05 06:02:57;;;;;;;37.67;27.50;;;4.30;89.00;;;;;;5097229;28;20197;-86
2024/03/05 06:05:26;;;;;;;27.93;24.57;;;4.30;88.90;;;;;;5078576;28;20172;-86
2024/03/05 06:07:52;;;;;;;28.73;22.23;;;4.30;88.90;;;;;;5097039;28;20254;-89
2024/03/05 06:10:18;;;;;;;27.00;22.40;;;4.30;88.50;;;;;;5078542;28;20185;-87
2024/03/05 06:12:47;;;;;;;32.97;24.93;;;4.30;88.40;;;;;;5078394;28;20202;-87
2024/03/05 06:15:13;;;;;;;25.23;20.70;;;4.30;88.50;;;;;;5096520;28;20181;-86
2024/03/05 06:17:40;;;;;;;32.83;24.73;;;4.30;88.50;;;;;;5078453;28;20598;-87
2024/03/05 06:20:12;;;;;;;29.23;24.07;;;4.30;88.70;;;;;;5096359;28;20176;-87
2024/03/05 06:22:43;;;;;;;31.70;25.33;;;4.30;88.70;;;;;;5096614;28;20199;-87
2024/03/05 06:25:15;;;;;;;30.60;23.53;;;4.30;88.70;;;;;;5078478;28;20703;-86
2024/03/05 06:27:41;;;;;;;32.03;21.90;;;4.30;88.90;;;;;;5078347;28;20169;-86
2024/03/05 06:30:17;;;;;;;26.97;21.20;;;4.30;88.90;;;;;;5096295;28;20172;-87
2024/03/05 06:32:47;;;;;;;24.50;17.60;;;4.30;88.90;;;;;;5096963;28;20192;-87
2024/03/05 06:35:22;;;;;;;32.83;23.13;;;4.30;88.90;;;;;;5096422;28;20171;-86
2024/03/05 06:37:48;;;;;;;23.80;20.47;;;4.30;88.80;;;;;;5096370;28;20210;-85
2024/03/05 06:40:19;;;;;;;34.97;20.90;;;4.30;88.70;;;;;;5096465;28;20188;-85
2024/03/05 06:42:52;;;;;;;27.30;19.63;;;4.30;88.80;;;;;;5095986;28;20187;-87
2024/03/05 06:45:24;;;;;;;26.00;19.43;;;4.30;88.80;;;;;;5096194;28;20150;-86
2024/03/05 06:47:56;;;;;;;20.80;18.50;;;4.30;88.60;;;;;;5096858;28;20158;-86
2024/03/05 06:50:33;;;;;;;29.23;22.00;;;4.30;88.40;;;;;;5096239;28;20179;-85
2024/03/05 06:58:30;;;;;;;28.13;22.20;;;4.30;88.70;;;;;;5096213;28;20203;-87
2024/03/05 07:00:56;;;;;;;27.93;24.93;;;4.30;88.70;;;;;;5096135;28;20197;-86
2024/03/05 07:03:22;;;;;;;25.13;22.53;;;4.30;88.60;;;;;;5095565;28;20222;-87
2024/03/05 07:05:47;;;;;;;28.50;23.30;;;4.30;88.60;;;;;;5077800;28;20187;-86
2024/03/05 07:08:14;;;;;;;27.63;24.87;;;4.30;88.50;;;;;;5095727;28;20641;-86
2024/03/05 07:10:39;;;;;;;31.60;28.20;;;4.30;88.50;;;;;;5096107;28;20234;-86
2024/03/05 07:13:08;;;;;;;33.87;26.80;;;4.40;88.80;;;;;;5095235;28;20201;-86
2024/03/05 07:15:34;;;;;;;30.73;24.93;;;4.40;88.70;;;;;;5095561;28;20554;-86
2024/03/05 07:18:01;;;;;;;25.13;22.73;;;4.40;88.70;;;;;;5095620;28;20191;-86
2024/03/05 07:20:27;;;;;;;28.53;23.30;;;4.40;88.60;;;;;;5077045;28;20234;-90
2024/03/05 07:22:54;;;;;;;32.10;25.57;;;4.40;88.60;;;;;;5077398;28;20201;-86
2024/03/05 07:25:22;;;;;;;26.27;23.53;;;4.40;88.40;;;;;;5095257;28;20646;-85
2024/03/05 07:27:48;;;;;;;26.67;24.00;;;4.50;88.50;;;;;;5095370;28;20259;-87
2024/03/05 07:30:18;;;;;;;26.90;24.27;;;4.40;88.40;;;;;;5076900;28;20185;-86
2024/03/05 07:32:47;;;;;;;23.83;21.43;;;4.50;88.40;;;;;;5076925;28;20204;-86
2024/03/05 07:35:13;;;;;;;22.87;20.70;;;4.40;88.00;;;;;;5094926;28;20177;-86
2024/03/05 07:37:45;;;;;;;35.40;25.37;;;4.50;88.00;;;;;;5094822;28;20276;-87
2024/03/05 07:40:17;;;;;;;27.17;24.23;;;4.50;88.30;;;;;;5076612;28;20178;-84
2024/03/05 07:42:53;;;;;;;29.83;26.63;;;4.50;88.20;;;;;;5076176;28;20696;-86
2024/03/05 07:45:20;;;;;;;31.40;28.07;;;4.50;87.80;;;;;;5094346;28;20176;-87
2024/03/05 07:47:47;;;;;;;27.07;24.47;;;4.60;88.00;;;;;;5094006;28;20223;-86
2024/03/05 07:50:14;;;;;;;33.00;25.97;;;4.60;87.90;;;;;;5076766;28;20185;-86
2024/03/05 07:52:44;;;;;;;29.80;26.77;;;4.60;87.90;;;;;;5076171;28;20221;-88
2024/03/05 07:55:13;;;;;;;31.90;27.00;;;4.60;87.80;;;;;;5076349;28;20190;-86
2024/03/05 07:57:39;;;;;;;28.47;25.53;;;4.60;87.50;;;;;;5076439;28;20206;-87
2024/03/05 08:00:08;;;;;;;29.93;26.27;;;4.60;87.30;;;;;;5094625;28;20177;-90
2024/03/05 08:02:35;;;;;;;25.73;23.03;;;4.60;87.70;;;;;;5077245;28;20695;-90
2024/03/05 08:05:01;;;;;;;24.17;21.70;;;4.60;86.90;;;;;;5094667;28;20174;-86
2024/03/05 08:07:26;;;;;;;26.10;23.30;;;4.60;87.30;;;;;;5077077;28;20185;-87
2024/03/05 08:09:52;;;;;;;26.23;23.47;;;4.70;87.60;;;;;;5094524;28;20192;-87
2024/03/05 08:12:17;;;;;;;26.53;23.77;;;4.60;86.80;;;;;;5094886;28;20193;-87
2024/03/05 08:14:43;;;;;;;26.00;23.50;;;4.60;86.80;;;;;;5076387;28;20641;-88
2024/03/05 08:17:08;;;;;;;27.90;22.93;;;4.60;87.10;;;;;;5076264;28;20182;-87
2024/03/05 08:19:34;;;;;;;25.77;23.10;;;4.60;86.50;;;;;;5094529;28;20173;-86
2024/03/05 08:22:00;;;;;;;24.40;22.00;;;4.60;86.50;;;;;;5076480;28;20194;-86
2024/03/05 08:24:26;;;;;;;28.77;23.47;;;4.60;86.80;;;;;;5076108;28;20204;-89
2024/03/05 08:26:51;;;;;;;24.97;22.47;;;4.70;86.50;;;;;;5076339;28;20177;-86
2024/03/05 08:29:18;;;;;;;28.30;25.53;;;4.60;86.10;;;;;;5076381;28;20186;-87
2024/03/05 08:31:43;;;;;;;22.13;16.97;;;4.60;86.20;;;;;;5076251;28;20202;-86
2024/03/05 08:34:09;;;;;;;23.10;19.03;;;4.70;86.50;;;;;;5094860;28;20531;-86
2024/03/05 08:36:36;;;;;;;20.33;17.70;;;4.70;86.20;;;;;;5076366;28;20209;-86
2024/03/05 08:39:05;;;;;;;22.87;16.80;;;4.80;86.40;;;;;;5094501;28;20258;-86
2024/03/05 08:41:31;;;;;;;20.13;17.00;;;4.80;86.20;;;;;;5076472;28;20293;-88
2024/03/05 08:43:56;;;;;;;18.80;16.53;;;4.80;86.10;;;;;;5094624;28;20279;-88
2024/03/05 08:46:22;;;;;;;19.47;17.57;;;4.80;85.70;;;;;;5076060;28;20173;-87
2024/03/05 08:48:48;;;;;;;18.67;16.77;;;4.80;85.30;;;;;;5076737;28;20224;-85
2024/03/05 08:51:13;;;;;;;17.60;15.77;;;4.80;84.90;;;;;;5094237;28;20554;-88
2024/03/05 08:53:39;;;;;;;16.13;14.77;;;4.80;84.90;;;;;;5094579;28;20163;-87
2024/03/05 08:56:07;;;;;;;18.93;17.13;;;4.80;84.70;;;;;;5094818;28;20178;-86
2024/03/05 08:58:33;;;;;;;17.67;16.03;;;4.80;84.70;;;;;;5094624;28;20726;-88
2024/03/05 09:00:58;;;;;;;18.43;16.73;;;4.90;84.80;;;;;;5080739;28;20174;-86
2024/03/05 09:03:24;;;;;;;21.93;17.10;;;4.90;84.50;;;;;;5098662;28;20197;-87
2024/03/05 09:05:49;;;;;;;19.23;17.07;;;5.00;84.70;;;;;;5080834;28;20649;-87
2024/03/05 09:08:15;;;;;;;17.13;15.43;;;5.00;83.80;;;;;;5099203;28;20668;-87
2024/03/05 09:10:40;;;;;;;17.70;16.07;;;5.00;83.70;;;;;;5080551;28;20247;-92
2024/03/05 09:13:06;;;;;;;27.47;25.00;;;5.10;83.60;;;;;;5080030;28;20213;-87
2024/03/05 09:15:31;;;;;;;27.57;25.07;;;5.00;83.30;;;;;;5098282;28;20654;-86
2024/03/05 09:17:57;;;;;;;25.90;23.47;;;5.10;83.80;;;;;;5081027;28;20343;-88
2024/03/05 09:20:23;;;;;;;26.40;24.33;;;5.20;83.40;;;;;;5079935;28;20211;-86
2024/03/05 09:22:48;;;;;;;24.07;22.00;;;5.20;82.70;;;;;;5080304;28;20247;-87
2024/03/05 09:25:15;;;;;;;24.30;22.20;;;5.10;82.50;;;;;;5081283;28;20268;-86
2024/03/05 09:27:42;;;;;;;27.90;25.00;;;5.20;82.70;;;;;;5099104;28;20676;-86
2024/03/05 09:30:08;;;;;;;28.20;25.47;;;5.20;83.00;;;;;;5080812;28;20179;-88
2024/03/05 09:32:34;;;;;;;25.57;23.47;;;5.30;82.50;;;;;;5098408;28;20243;-85
2024/03/05 09:35:00;;;;;;;27.67;25.27;;;5.30;81.90;;;;;;5082478;28;20545;-86
2024/03/05 09:37:28;;;;;;;27.67;25.17;;;5.30;82.20;;;;;;5080469;28;20204;-88
2024/03/05 09:39:54;;;;;;;30.13;26.57;;;5.30;82.50;;;;;;5079672;28;20175;-86
2024/03/05 09:42:20;;;;;;;25.93;23.23;;;5.30;82.10;;;;;;5079916;28;20708;-88
2024/03/05 09:44:48;;;;;;;26.63;23.63;;;5.30;82.00;;;;;;5079744;28;20177;-88
2024/03/05 09:47:17;;;;;;;24.80;22.47;;;5.30;81.40;;;;;;5080685;28;20174;-87
2024/03/05 09:49:44;;;;;;;27.87;25.17;;;5.40;81.50;;;;;;5081085;28;20213;-87
2024/03/05 09:52:11;;;;;;;26.57;24.57;;;5.40;81.90;;;;;;5098764;28;20206;-87
2024/03/05 09:54:38;;;;;;;22.20;20.30;;;5.50;81.50;;;;;;5080346;28;20661;-88
2024/03/05 09:57:04;;;;;;;23.00;20.63;;;5.60;81.50;;;;;;5098437;28;20167;-89
2024/03/05 09:59:30;;;;;;;27.57;25.27;;;5.80;80.50;;;;;;5080145;28;20266;-87
2024/03/05 10:01:56;;;;;;;25.60;23.13;;;6.00;81.10;;;;;;5080821;28;20195;-86
2024/03/05 10:04:26;;;;;;;24.30;22.20;;;5.90;79.50;;;;;;5098624;28;20547;-87
2024/03/05 10:06:52;;;;;;;24.00;22.00;;;5.90;79.70;;;;;;5099087;28;20182;-89
2024/03/05 10:09:18;;;;;;;24.87;22.87;;;5.90;80.10;;;;;;5099373;28;20175;-88
2024/03/05 10:11:44;;;;;;;28.07;25.20;;;6.10;80.60;;;;;;5077386;28;20206;-89
2024/03/05 10:14:10;;;;;;;24.10;22.17;;;6.20;79.40;;;;;;5078946;28;20661;-88
2024/03/05 10:16:37;;;;;;;27.07;24.80;;;6.40;79.60;;;;;;5078897;28;20601;-88
2024/03/05 10:19:17;;;;;;;30.90;28.07;;;6.50;79.10;;;;;;5097036;28;20283;-88
2024/03/05 10:21:44;;;;;;;18.87;17.03;;;6.50;78.20;;;;;;5078464;28;20281;-87
2024/03/05 10:24:12;;;;;;;19.27;17.63;;;6.70;79.20;;;;;;5078601;28;20197;-88
2024/03/05 10:26:38;;;;;;;19.87;17.77;;;6.70;77.00;;;;;;5079373;28;20223;-89
2024/03/05 10:29:09;;;;;;;20.10;18.10;;;6.80;77.70;;;;;;5096806;28;20570;-88
2024/03/05 10:31:39;;;;;;;21.50;19.53;;;6.80;77.60;;;;;;5096562;28;20227;-88
2024/03/05 10:34:06;;;;;;;28.20;18.63;;;6.90;77.60;;;;;;5079248;28;20167;-88
2024/03/05 10:36:34;;;;;;;23.83;20.43;;;7.00;76.80;;;;;;5078309;28;20189;-88
2024/03/05 10:39:00;;;;;;;20.43;18.67;;;7.10;76.10;;;;;;5078252;28;20210;-87
2024/03/05 10:41:33;;;;;;;21.67;19.77;;;7.00;75.50;;;;;;5096428;28;20178;-88
2024/03/05 10:44:02;;;;;;;19.97;18.00;;;6.80;76.40;;;;;;5078615;28;20711;-89
2024/03/05 10:46:29;;;;;;;22.67;20.13;;;6.90;77.40;;;;;;5078275;28;20601;-89
2024/03/05 10:49:00;;;;;;;24.23;19.47;;;6.90;76.80;;;;;;5078244;28;20206;-88
2024/03/05 10:51:30;;;;;;;22.03;20.20;;;7.00;76.20;;;;;;5078171;28;20183;-88
2024/03/05 10:54:02;;;;;;;22.67;20.30;;;7.10;76.00;;;;;;5078446;28;20183;-88
2024/03/05 10:56:28;;;;;;;24.47;21.87;;;7.20;76.40;;;;;;5077135;28;20181;-88
2024/03/05 11:01:39;;;;;;;24.13;20.60;;;7.30;76.10;;;;;;5096147;28;20322;-90
2024/03/05 11:04:14;;;;;;;23.93;21.63;;;7.40;76.30;;;;;;5077773;28;20209;-89
2024/03/05 11:06:45;;;;;;;23.63;21.50;;;7.50;74.70;;;;;;5077112;28;20247;-91
2024/03/05 11:09:12;;;;;;;25.37;22.77;;;7.50;75.20;;;;;;5076203;28;20193;-90
2024/03/05 11:11:43;;;;;;;24.03;21.43;;;7.50;74.10;;;;;;5077636;28;20697;-89
2024/03/05 11:14:10;;;;;;;22.30;20.20;;;7.70;75.10;;;;;;5077059;28;20171;-89
2024/03/05 11:16:36;;;;;;;22.53;20.53;;;7.60;74.00;;;;;;5076862;28;20181;-88
2024/03/05 11:19:07;;;;;;;23.30;20.97;;;7.50;74.50;;;;;;5076774;28;20210;-85
2024/03/05 11:21:38;;;;;;;22.13;20.07;;;7.60;74.60;;;;;;5094736;28;20197;-86
2024/03/05 11:24:05;;;;;;;22.83;21.13;;;7.70;73.90;;;;;;5076811;28;20185;-86
2024/03/05 11:26:33;;;;;;;22.57;20.47;;;7.70;73.70;;;;;;5094882;28;20170;-87
2024/03/05 11:29:06;;;;;;;23.43;21.47;;;7.80;72.90;;;;;;5076608;28;20182;-85
2024/03/05 11:31:32;;;;;;;23.97;21.73;;;7.90;72.60;;;;;;5076434;28;20199;-86
2024/03/05 11:34:11;;;;;;;23.27;21.27;;;7.80;72.90;;;;;;5094779;28;20174;-85
2024/03/05 11:36:36;;;;;;;23.67;21.77;;;7.90;72.60;;;;;;5095032;28;20163;-86
2024/03/05 11:39:14;;;;;;;24.07;22.07;;;7.90;70.90;;;;;;5076538;28;20251;-85
2024/03/05 11:41:44;;;;;;;24.83;22.83;;;8.00;72.30;;;;;;5094861;28;20190;-84
2024/03/05 11:44:14;;;;;;;25.23;21.83;;;8.00;71.00;;;;;;5094737;28;20608;-84
2024/03/05 11:46:43;;;;;;;23.90;22.10;;;8.00;70.60;;;;;;5094550;28;20162;-84
2024/03/05 11:49:09;;;;;;;26.53;24.50;;;8.10;71.00;;;;;;5094626;28;20198;-84
2024/03/05 11:51:35;;;;;;;25.73;23.40;;;7.90;70.70;;;;;;5094210;28;20198;-86
2024/03/05 11:54:01;;;;;;;27.13;24.70;;;8.00;70.00;;;;;;5094697;28;20166;-85
2024/03/05 11:56:26;;;;;;;25.03;23.03;;;7.80;69.70;;;;;;5094744;28;20179;-86
2024/03/05 11:58:54;;;;;;;26.63;24.30;;;7.80;71.10;;;;;;5094272;28;20206;-84
2024/03/05 12:01:20;;;;;;;26.93;24.73;;;8.10;70.30;;;;;;5094110;28;20169;-85
2024/03/05 12:03:46;;;;;;;25.67;23.33;;;8.30;69.60;;;;;;5094460;28;20182;-86
2024/03/05 12:06:17;;;;;;;26.97;24.70;;;8.30;68.00;;;;;;5076021;28;20174;-86
2024/03/05 12:08:44;;;;;;;26.37;24.27;;;8.30;68.90;;;;;;5076081;28;20178;-84
2024/03/05 12:11:09;;;;;;;26.33;24.23;;;8.40;67.80;;;;;;5094213;28;20284;-85
2024/03/05 12:13:35;;;;;;;26.73;24.70;;;8.30;67.60;;;;;;5076063;28;20184;-85
2024/03/05 12:16:11;;;;;;;25.17;23.17;;;8.30;67.80;;;;;;5094407;28;20174;-85
2024/03/05 12:18:38;;;;;;;28.00;25.70;;;8.50;67.90;;;;;;5093828;28;20727;-84
2024/03/05 12:21:06;;;;;;;26.33;23.90;;;8.70;69.10;;;;;;5094214;28;20163;-84
2024/03/05 12:23:33;;;;;;;27.60;25.33;;;8.70;65.60;;;;;;5075847;28;20199;-84
2024/03/05 12:25:59;;;;;;;25.23;23.30;;;8.70;66.10;;;;;;5094006;28;20239;-84
2024/03/05 12:28:25;;;;;;;27.23;25.10;;;8.40;65.50;;;;;;5093849;28;20179;-84
2024/03/05 12:30:52;;;;;;;25.83;23.83;;;8.30;68.40;;;;;;5075780;28;20235;-84
2024/03/05 12:33:22;;;;;;;26.57;24.37;;;8.50;69.10;;;;;;5093554;28;20252;-84
2024/03/05 12:35:52;;;;;;;28.23;25.77;;;8.50;64.90;;;;;;5094174;28;20196;-84
2024/03/05 12:38:17;;;;;;;26.50;24.40;;;8.50;67.60;;;;;;5093480;28;20203;-84
2024/03/05 12:40:43;;;;;;;42.60;39.30;;;8.50;67.90;;;;;;5094141;28;20174;-85
2024/03/05 12:43:10;;;;;;;39.47;36.57;;;8.30;67.60;;;;;;5093765;28;20186;-85